Timeline UpdatesTrip UpdatesNews PostsPvt PostsTravel TipsAdmin PostsConv PostsFollowed PostsChat RequestsBlog PostsPNR Posts

Disclaimer
Search
 
 
Wed Sep 17, 2014 07:03:40 ISTHomeTrainsΣChainsAtlasPNRForumGalleryNewsFAQTripsMembersLoginFeedback
No Recent News for this Train
Other Trains in the News **new
Latest...
Train number will be changed to 15909. Date for the same will be notified later.***Distance restriction 600 km in DN train
Sun Aug 31, 2014 (07:19AM)
⇐ Return Journey: Train# 15910

15609⇒15909/Avadh Assam Express

Time-Table HAS CHANGED.
Sep 04 (10:14PM)
Change Departure Station:
Change Arrival Station:
Post a Train Travel TipPost a Train Travel Tip **new
Post a Comment/Question/Picture/VideoPost a Comment/Question/Picture/Video
Pantry/Catering
✓ Pantry Car Avbl
✓ Catering Avbl
Loco/Rake Reversals
BTI/Bathinda Junction (6);
RSA - Rake Sharing
No Rake Sharing
Rake/Coach Composition
Loco-SLR-GS-GS-S10-S9-S8-S7-S6-S5-S4-S3-S2-S1-PC-B2-Army 3A-B1-A1-GS-GS-SLR-HCPV-HCPV.
Loco
SGUJ WDP#4B or 4D
News    PNR    Forum    Time-Table    Availability    Fare Chart    Map    Arr/Dep History    Trips    Gallery    ΣChains    X/O    Timeline    
Travel Time: 19h 33m    27 halts    Distance: 807 km    Avg Speed: 41 km/hr
Type: Mail/Express
Zone: NFR/Northeast Frontier
Departs @ 10:12
Platform# ???
SMTWTFS
Rampur Junction/RMU 
Arrives @ 05:45 +1 night
Platform# ???
SMTWTFS
Lalgarh Junction/LGH 

27 halts. 112 intermediate Stations between Rampur Junction and Lalgarh Junction

Show ALL intermediate Stations  Show Old Time-Table

#CodeStation NameX/OArrivesAvgDepartsAvgHaltPFDay#KmSpeedElevZoneAddress
1NTSKNew Tinsukia Junction (3)  -10:40---1-2265.458124mNFRDist: Tinsukia, Assam
2SLGRSimaluguri Junction (3)X  12:26-12:28-2m--1-2162.95299mNFRSimaluguri, Assam
3MXNMariani Junction (4)X  13:30-13:40-10m--1-2108.735117mNFRDist. Jorhat Pin-785634, Assam
4FKGFurkating Junction (2)  14:45-14:47-2m--1-2070.662 NFRK B Rd, Assam
5DMVDimapur (3)  15:55-16:00-5m--1-2000.559153mNFRDimapur, Nagaland
6DPUDiphu (2)X  16:35 16:38-16:37 16:39-2 1m--1-1963.238180mNFRDiphu, Assam
7LMGLumding Junction (5)  17:30-17:35-5m--1-1931.149142mNFRLumding, Assam
8HJIHojai (2)X  18:36 18:30-18:38 18:31-2 1m--1-1885.95078mNFRHojai Rd. Ph:- 03674-252136., Assam
9CPKChaparmukh Junction (3)  19:28 19:24-19:30 19:26-2m--1-1841.36665mNFRChaparmukh. Dist. Nagaon. Changing point for HBN/SHTT, Assam
10JIDJagi Road (2)  20:16 19:57-20:18 19:58-2 1m--1-1807.33462mNFRJagiroad, Assam
11GHYGuwahati (7)X  21:40-22:00-20m51-1750.33560mNFRGuwahati, Assam
12KYQKamakhya Junction (4)  22:16 22:12-22:17-1 5m--1-1743.36855mNFRDist - KAMRUP, Assam
13RNYRangiya Junction (5)  22:53-23:03-10m--1-1702.76958mNFRRangia, Assam
14BPRDBarpeta Road  23:55 23:59-23:56 00:01-1 2m--1-1637.84149mNFRHowli, Assam
15NBQNew Bongaigaon Junction (4)X  01:05-01:15-10m--2-1593.75858mNFR783381., Assam
16KOJKokrajhar (3)X  01:44-01:45-1m--2-1565.85946mNFR03661-270618, Assam
17FKMFakiragram Junction (4)  01:55-01:57-2m--2-1556.08644mNFR03661-283454, Assam
18NOQNew Alipurduar (2)X  02:55 02:45-03:00 02:50-5m--2-1487.03748mNFRDist - Alipurduar - 736121, West Bengal
19NCBNew Cooch Behar Junction (5)  03:20-03:25-5m12-1468.45647mNFRDist : Cooch Behar-736101, West Bengal
20DQGDhupguri (2)  04:20 04:30-04:25 04:35-5m--2-1408.26675mNFRDist - Jalpaiguri, West Bengal
21JPEJalpaiguri Road (2)  05:04-05:05-1m12-1376.43789mNFRdist - Jalpaiguri 735102, West Bengal
22NJPNew Jalpaiguri Junction (8)X  06:00-06:20-20m--2-1342.977114mNFRCity-Siliguri . Dist-Jalpaiguri, West Bengal
23AUBAluabari Road (2)X  07:05 07:04-07:07 07:06-2m--2-1286.1710mNFRDist - uttar Dinajpur, West Bengal
24KNEKishanGanj (3)X  07:32-07:37-5m--2-1255.56852mNFRKishanganj, Bihar
25DLKDalkhola (3)X  08:02-08:03-1m--2-1227.05844mNFRDalkola, West Bengal
26BOEBarsoi Junction (3)X  08:33-08:38-5m--2-1198.05337mNFRdist- katihar, Bihar
27AZRAzamnagar Road (3)  08:52 08:53-08:53 08:54-1m--2-1184.62834mNFRAzamnagar, Bihar
28KIRKatihar Junction (7)X  10:25-10:45-20m52-1141.87135mNFRKatihar 854105, Bihar
29NNANaugachia (3)X  11:28 11:34-11:29 11:35-1m22-1084.16437mECRBhagalpur, Bihar
30THBThana Bihpur Junction (3)X  11:45 11:50-11:46 11:51-1m--2-1068.27039mECRThana Bihpur, Bihar
31MNEMansi Junction (4)  12:29 12:27-12:30 12:28-1m--2-1026.23343mECRMansi, Bihar
32KGGKhagaria Junction (3)  12:46 12:44-12:47 12:45-1m--2-1017.47043mECRKhagaria, Bihar
33BGSBegusarai (3)  13:34 13:19-13:35 13:20-1m12-977.51546mECRBegusarai, Bihar
34BJUBarauni Junction (9)X  14:15-14:25-10m62-964.05549mECRBegusarai, Bihar
35DSSDalsingh Sarai (2)  14:54 14:55-14:55 14:56-1m12-936.748 ECR06278-221238, Bihar
36SPJSamastipur Junction (9)X15:23 15:25-15:33 15:35-10m92-913.54855mECRSamastipur, Bihar
37MFPMuzaffarpur Junction (6)  16:50 16:40-17:00 16:45-10 5m32-861.44757mECRMuzaffarpur, Bihar
38HJPHajipur Junction (3)X  18:12 17:53-18:13 17:54-1m12-807.53355mECR06224-272230, Bihar
39SEESonpur Junction (4)  18:23 18:04-18:33 18:09-10 5m--2-802.04056mECRSaran, Bihar
40CPRChhapra Junction (6)  19:30-19:45 19:40-15 10m--2-748.07658mNERDistt: Saran, Bihar
41EKMAEkma (3)X  20:07 20:02-20:08 20:03-1m--2-720.14364mNERSaran, Bihar
42SVSiwan Junction (4)  20:40 20:50-20:45 20:55-5m--2-686.86770mNERSiwan, Bihar
43MWMairwa (2) new halt!!X  21:14-21:15-1m--2-665.55873mNERMairwa, Bihar
44BHTRBhatpar Rani (2) new halt!!  21:30-21:31-1m--2-650.94173mNERDeoria, Uttar Pradesh
45BTTBhatni Junction (5) new halt!!  21:50-21:55-5m--2-638.011373mNERDeoria, Uttar Pradesh
46DEOSDeoria Sadar (3) new halt!!  22:06-22:07-1m--2-617.33479mNERDeoria- 274001, Uttar Pradesh
47GKPGorakhpur Junction (10)X  23:25 23:35-23:45 23:50-20 15m--2-568.15884mNERGorakhpur 273001, Uttar Pradesh
48KLDKhalilabad (3)  00:22 00:25-00:33 00:26-11 1m--3-534.24086mNERKhalilabad- 272175, Uttar Pradesh
49BSTBasti (4)X  00:55 01:10-01:00 01:15-5m--3-504.76990mNERBasti 272001, Uttar Pradesh
50MURMankapur Junction (5)  01:58 02:08-02:00 02:10-2m23-444.156104mNERDistrict Gonda, Uttar Pradesh
51GDGonda Junction (3)  02:40-02:45-5m13-416.355110mNERGonda 271001, Uttar Pradesh
52JLDJarwal Road (2)X  03:22 03:35-03:23 03:36-1m--3-370.144112mNERBehraich, Uttar Pradesh
53BBKBarabanki Junction (4)X  04:36 04:35-04:38 04:37-2m13-326.936122mNRPin-225001, Uttar Pradesh
54LKOLucknow Charbagh NR (9)XO  05:25-05:35-10m53-298.465123mNR226004, Uttar Pradesh
55BLMBalamau Junction (4)X  06:39-06:40-1m--3-229.668139mNRBalamau, Uttar Pradesh
56HRIHardoi (5)X  07:09-07:10-1m13-196.660146mNRHardoi, Uttar Pradesh
57SPNShahjahanpur Junction (3)X  08:13-08:18-5m--3-133.574156mNRShahjahanpur, Uttar Pradesh
58BEBareilly Junction (4)X  09:14 09:15-09:19 09:20-5m23-63.074174mNRBareilly, Uttar Pradesh
59RMU»Rampur Junction (3)»X  10:11-10:12-1m--30.026190mNRRampur, Uttar Pradesh
60MBMoradabad Junction (7)X  11:15-11:25-10m2327.359201mNRMoradabad, Uttar Pradesh
61AMROAmroha (3)  11:56-11:57-1m2357.854217mNRAmroha, Uttar Pradesh
62HPUHapur Junction (4)OO  13:18-13:20-2m--3131.356214mNRHapur Jn., Uttar Pradesh
63PKWPilkhua (3)  13:35 13:32-13:36 13:33-1m--3142.434218mNRPilkhuwa, Uttar Pradesh
64GZBGhaziabad Junction (6)X  14:18-14:20-2m33168.027217mNRGhaziabad, Uttar Pradesh
65DLIOld Delhi Junction (16)X  15:05-15:30-25m93188.012219mNRNear Chandni Chowk Metro Station, Delhi NCT
66DKZDelhi KishanGanj (2)  15:44-15:45-1m--3190.930220mNRSarai Rohilla, Delhi NCT
67SSBShakur Basti  15:59-16:00-1m--3197.964216mNRPitampura, Delhi NCT
68NNONangloi  16:07-16:08-1m--3205.358219mNRJJ Colony No 1, Delhi NCT
69BGZBahadurgarhX  16:21-16:22-1m--3217.856220mNRBahadurgarh, Haryana
70ROKRohtak Junction (3)X  17:05-17:10-5m--3258.157220mNRRohtak, Haryana
71JINDJind Junction (3)X  18:10-18:15-5m--3315.255222mNR126102., Haryana
72NRWNarwana Junction (4)  18:52-18:53-1m33349.173235mNRWay to Narwana, Haryana
73TUNTohana (2)  19:14-19:15-1m--3374.537232mNRTohana, Haryana
74JHLJakhal Junction  19:30 19:35-19:32 19:40-2 5m--3386.871225mNRJakhal, Haryana
75BRZBareta19:45 19:52-19:46 19:53-1m--3401.077223mNRBareta, Punjab
76BLZBudhlada19:58 20:05-19:59 20:06-1m--3416.460223mNRBudhlada, Punjab
77MSZMansa  20:11 20:22-20:22 20:23-11 1m--3432.559222mNRMansa, Punjab
78MAURMaur20:33 20:42-20:34 20:43-1m--3451.228220mNRMaur Mandi, Punjab
79BTIBathinda Junction (6)X22:00-23:30 23:35-90 95m43486.761208mNRBathinda, Punjab
80MBYMandi DabwaliX  00:10-00:11-1m--4522.350198mNWRMandi Dabwali, Haryana
81SGRASangaria  00:51 00:47-00:52 00:48-1m--4552.449193mNWRSangariya, Rajasthan
82HMHHanumangarh Junction (4)  01:20-01:25-5m--4578.467184mNWRHanumangarh, Rajasthan
83PGKPili Bangan  01:48-01:49-1m--4604.142176mNWRPilibanga, Rajasthan
84SOGSuratgarh Junction (5)  02:25-02:30-5m--4629.074170mNWRSuratgarh, Rajasthan
85MHJMahajanX  03:21-03:22-1m--4691.664199mNWRMahajan, Rajasthan
86LKSLunkaransar  03:59-04:00-1m--4731.043194mNWRLunkaransar, Rajasthan
87LGH•Lalgarh Junction•  05:45----4807.1-225mNWRBikaner, Rajasthan
Scroll to Top
Scroll to Bottom